KJST

John Murtha Johnstown-Cambria Co Airport

Johnstown, Pennsylvania, USA
METAR KJST 110154Z AUTO 28004KT 8SM OVC006 M07/M09 A3011 RMK AO2 SLP235 T10671089
Observed Flight Rules
Dec-11 @ 01:54 UTC (31 minutes ago) Instrument Flight Rules
Wind Visibility Clouds
280° at 4 knots 8 miles
  • Overcast at 600' AGL
Temperatures Readings
Current -7°C / 19°F
Dewpoint -9°C / 16°F
Humidity 86%
Altimeter 30.11" Hg
Pressure 1023.5 hPa
Elevation 694
METAR KJST 110154Z AUTO 28004KT 8SM OVC006 M07/M09 A3011 RMK AO2 SLP235 T10671089
Observed Flight Rules
Dec-11 @ 01:54 UTC
(31 minutes ago)
IFR
Wind Visibility
280° at 4 knots 8 miles
Clouds
  • Overcast at 600' AGL
Temperature Dewpoint
-7°C / 19°F -9°C / 16°F
Humidity Altimeter Pressure
86% 30.11" Hg 1023.5 hPa